• Join FlightAware (Why Join?)
  • Login
  • US Flag 
05:06PM EST


 

Airport Tracker/Info


-or-


 

Live Flight TrackerFlight Track Log ✈ N45NS ✈ 04-Mar-2014 ✈ KTRI - KBJJ

Flight Track Log - Related Links

Times and Time Zones

All times are in EST time to prevent confusion due to time zone crossing. See the N45NS flight status page for this flight to view local times or setup timezone preferences in your user account.

Time Position Orientation Groundspeed Altitude Reporting Facility
EST Latitude Longitude Course Direction KTS MPH feet Rate Location/Type
05:29PM 36.5242 -82.5067 North 272 313 10,300  Level Atlanta Center
05:30PM 36.6033 -82.4922 North 277 319 13,800 2,940 Climbing Atlanta Center
05:31PM 36.6725 -82.4792 North 290 334 15,900 1,440 Climbing Indianapolis Center
05:32PM 36.7686 -82.4617 North 337 388 16,600 1,740 Climbing Indianapolis Center
05:33PM 36.9367 -82.3325 11° North  Level FlightAware Approximate
05:33PM 36.8639 -82.4461 North 350 403 19,600  Level Indianapolis Center
05:34PM 36.9733 -82.4275 North 346 398 22,800 1,620 Climbing Indianapolis Center
05:35PM 37.0778 -82.4131 North 367 422 23,000 60 Climbing Indianapolis Center
05:36PM 37.1903 -82.4269 354° North 399 459 23,000 900 Level Indianapolis Center
05:37PM 37.3031 -82.4397 355° North 405 466 24,900 2,220 Climbing Indianapolis Center
05:38PM 37.4292 -82.4261 North 397 457 27,600 1,980 Climbing Indianapolis Center
05:39PM 37.5378 -82.4092 North 393 452 29,000 660 Climbing Indianapolis Center
05:40PM 37.6572 -82.3900 North 420 483 29,000  Level Indianapolis Center
05:41PM 37.7842 -82.3706 North 450 518 29,000  Level Indianapolis Center
05:42PM 37.9108 -82.3517 North 456 525 29,000  Level Indianapolis Center
05:43PM 38.0569 -82.3297 North 455 524 29,000  Level Indianapolis Center
05:44PM 38.1664 -82.3125 North 452 520 29,000  Level Indianapolis Center
05:45PM 38.2908 -82.2942 North 450 518 29,000  Level Indianapolis Center
05:46PM 38.4144 -82.2761 North 448 516 29,000  Level Indianapolis Center
05:48PM 38.5622 -82.2539 North 446 513 29,000  Level Indianapolis Center
05:49PM 38.6861 -82.2369 North 446 513 29,000  Level Indianapolis Center
05:50PM 38.8094 -82.2172 North 446 513 29,000  Level Indianapolis Center
05:51PM 38.9317 -82.1978 North 443 510 29,000  Level Indianapolis Center
05:52PM 39.0544 -82.1797 North 443 510 29,000  Level Indianapolis Center
05:53PM 39.1747 -82.1606 North 438 504 29,000 -60 Level Indianapolis Center
05:54PM 39.2950 -82.1419 North 436 502 28,900 -960 Descending Indianapolis Center
05:55PM 39.4369 -82.1186 North 432 497 27,100 -1,620 Descending Indianapolis Center
05:56PM 39.5514 -82.1003 North 419 482 25,600 -1,500 Descending Indianapolis Center
05:57PM 39.6628 -82.0833 North 408 470 24,100 -1,020 Descending Indianapolis Center
05:58PM 39.7744 -82.0658 North 406 467 23,500 -1,200 Descending Indianapolis Center
05:59PM 39.8831 -82.0486 North 401 461 21,600 -2,040 Descending Indianapolis Center
06:00PM 39.9878 -82.0317 North 392 451 19,300 -2,280 Descending Indianapolis Center
06:01PM 40.0881 -82.0158 North 372 428 17,000 -2,520 Descending Indianapolis Center
06:02PM 40.2047 -81.9972 North 359 413 14,100 -2,520 Descending Indianapolis Center
06:03PM 40.2947 -81.9828 North 351 404 11,800 -2,280 Descending Indianapolis Center
06:04PM 40.3794 -81.9694 North 315 362 9,400 -2,280 Descending Indianapolis Center
06:05PM 40.4639 -81.9542 North 270 311 7,100 -2,160 Descending Indianapolis Center
06:06PM 40.5400 -81.9414 North 268 308 5,000 -1,980 Descending Indianapolis Center
06:07PM 40.6144 -81.9275 North 272 313 3,100 -1,020 Descending Indianapolis Center
06:08PM 40.6881 -81.9186 North 267 307 3,000 -60 Descending Indianapolis Center
06:09PM 40.7625 -81.9119 North 266 306 3,000 -240 Level Indianapolis Center
06:10PM 40.8300 -81.9231 353° North 252 290 2,600 -660 Descending Indianapolis Center
06:11PM 40.8747 -81.9192 North 207 238 1,700 -900 Descending Indianapolis Center
06:13PM 40.8667 -81.8833 North  Level FlightAware Approximate
06:20PM 40.8748 -81.8883 North  Level Estimated